• Join FlightAware (Why Join?)
  • Login
  • US Flag 
02:23AM EDT


 

Airport Tracker/Info


-or-


 

Live Flight TrackerFlight Track Log ✈ AWE226 ✈ 19-Jun-2013 ✈ KPHX - KBOS

Flight Track Log - Related Links

Times and Time Zones

All times are in EDT time to prevent confusion due to time zone crossing. See the AWE226 flight status page for this flight to view local times or setup timezone preferences in your user account.

Time Position Orientation Groundspeed Altitude Reporting Facility
EDT Latitude Longitude Course Direction KTS MPH feet Rate Location/Type
03:14AM 33.4333 -112.0333 292° West 192 221 1,900  Level Phoenix TRACON
03:14AM 33.4500 -112.0833 292° West 181 208 3,000 1,380 Climbing Phoenix TRACON
03:15AM 33.4500 -112.1500 270° West 238 274 4,300 1,620 Climbing Phoenix TRACON
03:17AM 33.5153 -112.1889 334° Northwest 276 318 7,000 1,740 Climbing Albuquerque Center
03:18AM 33.5939 -112.1642 15° North 296 341 8,600 1,680 Climbing Albuquerque Center
03:19AM 33.6278 -112.0711 66° East 311 358 10,400 1,500 Climbing Albuquerque Center
03:20AM 33.6606 -111.9669 69° East 334 384 11,700 1,140 Climbing Albuquerque Center
03:21AM 33.6956 -111.8472 71° East 383 441 12,700 1,380 Climbing Albuquerque Center
03:22AM 33.7397 -111.6956 71° East 405 466 14,500 1,560 Climbing Albuquerque Center
03:23AM 33.7775 -111.5644 71° East 419 482 15,900 1,500 Climbing Albuquerque Center
03:24AM 33.8192 -111.4303 69° East 433 498 17,500 1,680 Climbing Albuquerque Center
03:25AM 33.8767 -111.3039 61° Northeast 433 498 19,400 1,620 Climbing Albuquerque Center
03:26AM 33.9333 -111.1725 63° Northeast 443 510 20,800 1,320 Climbing Albuquerque Center
03:27AM 33.9906 -111.0411 62° Northeast 446 513 22,100 1,140 Climbing Albuquerque Center
03:28AM 34.0483 -110.9053 63° Northeast 452 520 23,200 960 Climbing Albuquerque Center
03:29AM 34.1089 -110.7675 62° Northeast 461 531 24,100 1,020 Climbing Albuquerque Center
03:30AM 34.1714 -110.6208 63° Northeast 467 537 25,300 1,140 Climbing Albuquerque Center
03:31AM 34.2336 -110.4786 62° Northeast 476 548 26,400 960 Climbing Albuquerque Center
03:32AM 34.2969 -110.3281 63° Northeast 481 554 27,300 720 Climbing Albuquerque Center
03:33AM 34.3575 -110.1878 62° Northeast 489 563 27,900 600 Climbing Albuquerque Center
03:34AM 34.4178 -110.0456 63° Northeast 493 567 28,600 900 Climbing Albuquerque Center
03:35AM 34.4889 -109.8753 63° Northeast 503 579 29,800 960 Climbing Albuquerque Center
03:36AM 34.5494 -109.7317 63° Northeast 502 578 30,600 900 Climbing Albuquerque Center
03:37AM 34.6092 -109.5883 63° Northeast 499 574 31,700 960 Climbing Albuquerque Center
03:38AM 34.6775 -109.4225 63° Northeast 496 571 32,600 780 Climbing Albuquerque Center
03:39AM 34.7367 -109.2811 63° Northeast 493 567 33,300 720 Climbing Albuquerque Center
03:40AM 34.7942 -109.1403 64° Northeast 490 564 34,100 720 Climbing Albuquerque Center
03:41AM 34.8614 -108.9775 63° Northeast 485 558 34,800 420 Climbing Albuquerque Center
03:42AM 34.9189 -108.8367 63° Northeast 486 559 35,000 60 Climbing Albuquerque Center
03:43AM 34.9753 -108.6969 64° Northeast 484 557 35,000  Level Albuquerque Center
03:44AM 35.0419 -108.5331 64° Northeast 484 557 35,000  Level Albuquerque Center
03:45AM 35.0997 -108.3908 64° Northeast 487 560 35,000  Level Albuquerque Center
03:46AM 35.1564 -108.2481 64° Northeast 489 563 35,000  Level Albuquerque Center
03:47AM 35.2142 -108.1058 64° Northeast 489 563 35,000 -60 Level Albuquerque Center
03:48AM 35.2803 -107.9381 64° Northeast 492 566 34,900  Descending Albuquerque Center
03:49AM 35.3378 -107.7947 64° Northeast 492 566 35,000  Climbing Albuquerque Center
03:50AM 35.3944 -107.6483 65° Northeast 495 570 35,000  Level Albuquerque Center
03:51AM 35.4614 -107.4794 64° Northeast 495 570 35,000  Level Albuquerque Center
03:52AM 35.5181 -107.3319 65° Northeast 498 573 35,000  Level Albuquerque Center
03:53AM 35.5783 -107.1772 64° Northeast 500 575 35,000  Level Albuquerque Center
03:54AM 35.6394 -107.0192 65° Northeast 505 581 35,100  Climbing Albuquerque Center
03:55AM 35.7003 -106.8622 64° Northeast 504 580 35,000 -60 Descending Albuquerque Center
03:56AM 35.7567 -106.7142 65° Northeast 501 577 35,000  Level Albuquerque Center
03:57AM 35.8153 -106.5650 64° Northeast 503 579 35,000  Level Albuquerque Center
03:58AM 35.8808 -106.3936 65° Northeast 498 573 35,000  Level Albuquerque Center
03:59AM 35.9361 -106.2447 65° Northeast 492 566 35,000 -60 Level Albuquerque Center
04:00AM 35.9919 -106.0892 66° East 493 567 34,900  Descending Albuquerque Center
04:01AM 36.0497 -105.9358 65° Northeast 494 568 35,100  Climbing Albuquerque Center
04:02AM 36.1053 -105.7850 65° Northeast 486 559 35,000 -60 Descending Albuquerque Center
04:03AM 36.1608 -105.6350 65° Northeast 481 554 35,000  Level Albuquerque Center
04:04AM 36.2106 -105.4969 66° East 476 548 35,000  Level Albuquerque Center
04:05AM 36.2664 -105.3464 65° Northeast 475 547 35,000  Level Albuquerque Center
04:06AM 36.3211 -105.1936 66° East 477 549 35,000  Level Albuquerque Center
04:07AM 36.3758 -105.0433 66° East 475 547 35,000  Level Albuquerque Center
04:08AM 36.4303 -104.8914 66° East 475 547 35,000  Level Albuquerque Center
04:09AM 36.4850 -104.7389 66° East 477 549 35,000  Level Albuquerque Center
04:10AM 36.5394 -104.5872 66° East 477 549 35,000  Level Albuquerque Center
04:11AM 36.5936 -104.4350 66° East 476 548 35,000  Level Albuquerque Center
04:12AM 36.6475 -104.2833 66° East 475 547 35,000  Level Albuquerque Center
04:13AM 36.7047 -104.1222 66° East 476 548 35,000  Level Albuquerque Center
04:14AM 36.7553 -103.9775 66° East 476 548 35,000  Level Albuquerque Center
04:15AM 36.8061 -103.8322 66° East 479 551 35,000  Level Albuquerque Center
04:16AM 36.8650 -103.6611 67° East 482 555 35,000  Level Albuquerque Center
04:17AM 36.9158 -103.5139 67° East 483 556 35,000  Level Albuquerque Center
04:18AM 36.9656 -103.3689 67° East 479 551 35,000  Level Albuquerque Center
04:19AM 37.0233 -103.1989 67° East 478 550 35,000  Level Albuquerque Center
04:20AM 37.0733 -103.0517 67° East 480 552 35,000  Level Albuquerque Center
04:21AM 37.1225 -102.9056 67° East 478 550 35,000  Level Albuquerque Center
04:22AM 37.1722 -102.7583 67° East 480 552 35,000  Level Albuquerque Center
04:23AM 37.2297 -102.5856 67° East 481 554 35,000  Level Albuquerque Center
04:24AM 37.2789 -102.4350 68° East 484 557 35,000  Level Albuquerque Center
04:25AM 37.3206 -102.3083 67° East 486 559 35,000  Level Kansas City Center
04:26AM 37.3708 -102.1575 67° East 488 562 35,000  Level Kansas City Center
04:27AM 37.4206 -102.0069 67° East 487 560 35,000  Level Kansas City Center
04:28AM 37.4775 -101.8319 68° East 486 559 35,000  Level Kansas City Center
04:29AM 37.5256 -101.6811 68° East 486 559 35,000  Level Kansas City Center
04:30AM 37.5742 -101.5317 68° East 482 555 35,000  Level Kansas City Center
04:31AM 37.6303 -101.3544 68° East 487 560 35,000  Level Kansas City Center
04:32AM 37.6789 -101.2039 68° East 484 557 35,000  Level Kansas City Center
04:33AM 37.7283 -101.0486 68° East 486 559 35,000  Level Kansas City Center
04:34AM 37.7781 -100.8950 68° East 487 560 35,000 120 Level Kansas City Center
04:35AM 37.8275 -100.7386 68° East 492 566 35,300 540 Climbing Kansas City Center
04:36AM 37.8819 -100.5647 68° East 479 551 36,200 720 Climbing Kansas City Center
04:37AM 37.9278 -100.4167 69° East 473 544 36,800 360 Climbing Kansas City Center
04:38AM 37.9728 -100.2683 69° East 470 541 37,000 60 Climbing Kansas City Center
04:39AM 38.0272 -100.0919 69° East 479 551 37,000  Level Kansas City Center
04:40AM 38.0719 -99.9406 69° East 479 551 37,000  Level Kansas City Center
04:41AM 38.1183 -99.7867 69° East 483 556 37,000  Level Kansas City Center
04:42AM 38.1714 -99.6081 69° East 485 558 37,000  Level Kansas City Center
04:43AM 38.2172 -99.4544 69° East 482 555 37,000  Level Kansas City Center
04:44AM 38.2650 -99.2961 69° East 479 551 37,000  Level Kansas City Center
04:45AM 38.3119 -99.1378 69° East 478 550 37,000  Level Kansas City Center
04:46AM 38.3578 -98.9817 69° East 473 544 37,000  Level Kansas City Center
04:47AM 38.4056 -98.8231 69° East 475 547 37,000  Level Kansas City Center
04:48AM 38.4519 -98.6633 70° East 479 551 37,000  Level Kansas City Center
04:49AM 38.4981 -98.5047 70° East 477 549 37,000  Level Kansas City Center
04:50AM 38.5433 -98.3447 70° East 476 548 37,000  Level Kansas City Center
04:51AM 38.5886 -98.1833 70° East 478 550 37,000  Level Kansas City Center
04:52AM 38.6353 -98.0231 70° East 479 551 37,000  Level Kansas City Center
04:53AM 38.6806 -97.8622 70° East 480 552 37,000  Level Kansas City Center
04:54AM 38.7275 -97.6944 70° East 482 555 37,000  Level Kansas City Center
04:55AM 38.7717 -97.5386 70° East 485 558 37,000  Level Kansas City Center
04:56AM 38.8169 -97.3717 71° East 488 562 37,000  Level Kansas City Center
04:57AM 38.8622 -97.2092 70° East 484 557 37,000  Level Kansas City Center
04:58AM 38.9064 -97.0464 71° East 482 555 37,000  Level Kansas City Center
04:59AM 38.9492 -96.8858 71° East 477 549 37,000  Level Kansas City Center
05:00AM 38.9994 -96.7108 70° East 482 555 37,000  Level Kansas City Center
05:01AM 39.0400 -96.5550 71° East 480 552 37,000  Level Kansas City Center
05:02AM 39.0794 -96.3994 72° East 479 551 37,000  Level Kansas City Center
05:03AM 39.1269 -96.2192 71° East 475 547 37,000  Level Kansas City Center
05:04AM 39.1681 -96.0625 71° East 481 554 37,000  Level Kansas City Center
05:05AM 39.2094 -95.9067 71° East 480 552 37,000  Level Kansas City Center
05:06AM 39.2569 -95.7242 71° East 478 550 37,000  Level Kansas City Center
05:07AM 39.2972 -95.5675 72° East 479 551 37,000  Level Kansas City Center
05:08AM 39.3411 -95.3953 72° East 479 551 37,000  Level Kansas City Center
05:09AM 39.3836 -95.2314 71° East 481 554 37,000  Level Kansas City Center
05:10AM 39.4258 -95.0633 72° East 479 551 37,000  Level Kansas City Center
05:11AM 39.4656 -94.9047 72° East 481 554 37,000  Level Kansas City Center
05:12AM 39.5056 -94.7478 72° East 480 552 37,000  Level Kansas City Center
05:13AM 39.5444 -94.5889 72° East 482 555 37,000  Level Kansas City Center
05:14AM 39.5892 -94.4047 72° East 480 552 37,000  Level Kansas City Center
05:15AM 39.6272 -94.2489 72° East 475 547 37,000  Level Kansas City Center
05:16AM 39.6650 -94.0942 72° East 471 542 37,000  Level Kansas City Center
05:17AM 39.7086 -93.9122 73° East 471 542 37,000  Level Kansas City Center
05:18AM 39.7461 -93.7581 72° East 470 541 37,000  Level Kansas City Center
05:19AM 39.7808 -93.6050 74° East 476 548 37,000  Level Kansas City Center
05:20AM 39.8197 -93.4442 72° East 472 543 37,000  Level Kansas City Center
05:21AM 39.8572 -93.2808 73° East 476 548 37,000  Level Kansas City Center
05:22AM 39.8964 -93.1189 72° East 475 547 37,000  Level Kansas City Center
05:24AM 39.9408 -92.9208 74° East 479 551 37,000  Level Kansas City Center
05:25AM 39.9786 -92.7567 73° East 482 555 37,000  Level Kansas City Center
05:26AM 40.0153 -92.5914 74° East 485 558 37,000  Level Kansas City Center
05:27AM 40.0531 -92.4278 73° East 483 556 37,000  Level Kansas City Center
05:28AM 40.0894 -92.2656 74° East 479 551 37,000  Level Kansas City Center
05:29AM 40.1250 -92.1022 74° East 477 549 37,000  Level Kansas City Center
05:30AM 40.1622 -91.9411 73° East 472 543 37,000  Level Kansas City Center
05:31AM 40.1967 -91.7792 74° East 469 540 37,000  Level Kansas City Center
05:32AM 40.2392 -91.5842 74° East 469 540 37,000  Level Kansas City Center
05:33AM 40.2733 -91.4200 75° East 471 542 37,000  Level Kansas City Center
05:34AM 40.3097 -91.2567 74° East 471 542 37,000  Level Kansas City Center
05:35AM 40.3444 -91.0925 74° East 471 542 37,000  Level Kansas City Center
05:36AM 40.3786 -90.9267 75° East 471 542 37,000  Level Kansas City Center
05:37AM 40.4136 -90.7608 74° East 471 542 37,000  Level Kansas City Center
05:38AM 40.4481 -90.5958 75° East 470 541 37,000  Level Kansas City Center
05:39AM 40.4822 -90.4300 75° East 471 542 37,000  Level Kansas City Center
05:40AM 40.5164 -90.2625 75° East 474 545 37,000  Level Kansas City Center
05:41AM 40.5472 -90.1044 76° East 473 544 37,000  Level Kansas City Center
05:42AM 40.5811 -89.9372 75° East 476 548 37,000  Level Kansas City Center
05:43AM 40.6147 -89.7639 76° East 479 551 37,000  Level Kansas City Center
05:44AM 40.6483 -89.5936 75° East 482 555 37,000  Level Kansas City Center
05:45AM 40.6806 -89.4314 75° East 480 552 37,000  Level Kansas City Center
05:46AM 40.7142 -89.2642 75° East 476 548 37,000  Level Kansas City Center
05:47AM 40.7525 -89.0600 76° East 480 552 37,000  Level Chicago Center
05:48AM 40.7853 -88.8928 75° East 475 547 37,000  Level Chicago Center
05:49AM 40.8211 -88.6961 76° East 466 536 37,000  Level Chicago Center
05:50AM 40.8533 -88.5294 76° East 467 537 37,000  Level Chicago Center
05:51AM 40.8833 -88.3636 76° East 470 541 37,000  Level Chicago Center
05:52AM 40.9144 -88.1972 76° East 471 542 37,000  Level Chicago Center
05:53AM 40.9444 -88.0300 77° East 472 543 37,000  Level Chicago Center
05:54AM 40.9750 -87.8631 76° East 471 542 37,000  Level Chicago Center
05:55AM 41.0050 -87.6975 76° East 470 541 37,000  Level Chicago Center
05:56AM 41.0350 -87.5297 77° East 473 544 37,000  Level Chicago Center
05:57AM 41.0639 -87.3625 77° East 472 543 37,000  Level Chicago Center
05:58AM 41.1000 -87.1608 77° East 474 545 37,000  Level Chicago Center
05:59AM 41.1286 -86.9925 77° East 473 544 37,000  Level Chicago Center
06:00AM 41.1583 -86.8236 77° East 473 544 37,000  Level Chicago Center
06:01AM 41.1833 -86.6722 78° East 477 549 37,000  Level Chicago Center
06:02AM 41.2117 -86.5019 77° East 476 548 37,000  Level Chicago Center
06:03AM 41.2406 -86.3303 77° East 477 549 37,000  Level Chicago Center
06:04AM 41.2678 -86.1589 78° East 477 549 37,000  Level Chicago Center
06:05AM 41.3014 -85.9558 78° East 471 542 37,000  Level Chicago Center
06:06AM 41.3286 -85.7856 78° East 474 545 37,000  Level Chicago Center
06:07AM 41.3547 -85.6153 78° East 478 550 37,000  Level Chicago Center
06:08AM 41.3814 -85.4447 78° East 477 549 37,000  Level Chicago Center
06:09AM 41.4075 -85.2747 78° East 477 549 37,000  Level Chicago Center
06:10AM 41.4339 -85.1053 78° East 476 548 37,000  Level Chicago Center
06:11AM 41.4603 -84.9364 78° East 472 543 37,000  Level Chicago Center
06:12AM 41.4869 -84.7664 78° East 472 543 37,000  Level Chicago Center
06:13AM 41.5142 -84.5961 78° East 472 543 37,000  Level Chicago Center
06:14AM 41.5428 -84.4242 77° East 475 547 37,000  Level Chicago Center
06:15AM 41.5706 -84.2517 78° East 477 549 37,000  Level Chicago Center
06:16AM 41.6031 -84.0475 78° East 471 542 37,000  Level Chicago Center
06:17AM 41.6308 -83.8761 78° East 472 543 37,000  Level Chicago Center
06:18AM 41.6567 -83.7044 79° East 473 544 37,000  Level Chicago Center
06:19AM 41.6878 -83.4833 79° East 467 537 37,000  Level Cleveland Center
06:20AM 41.7128 -83.3147 79° East 467 537 37,000  Level Cleveland Center
06:21AM 41.7394 -83.1433 78° East 467 537 37,000  Level Cleveland Center
06:22AM 41.7642 -82.9689 79° East 467 537 37,000  Level Cleveland Center
06:23AM 41.7906 -82.8000 78° East 467 537 37,000  Level Cleveland Center
06:24AM 41.8144 -82.6308 79° East 467 537 37,000  Level Cleveland Center
06:25AM 41.8381 -82.4783 78° East 467 537 37,000  Level Cleveland Center
06:26AM 41.8636 -82.3089 78° East 467 537 37,000  Level Cleveland Center
06:27AM 41.8869 -82.1339 80° East 467 537 37,000  Level Cleveland Center
06:28AM 41.9142 -81.9644 78° East 467 537 37,000  Level Cleveland Center
06:29AM 41.9369 -81.7917 80° East 467 537 37,000  Level Cleveland Center
06:30AM 41.9594 -81.6192 80° East 467 537 37,000  Level Cleveland Center
06:31AM 41.9858 -81.4492 78° East 467 537 37,000  Level Cleveland Center
06:32AM 42.0081 -81.2567 81° East 467 537 37,000  Level Cleveland Center
06:33AM 42.0319 -81.0836 79° East 467 537 37,000  Level Cleveland Center
06:34AM 42.0575 -80.9103 79° East 467 537 37,000  Level Cleveland Center
06:35AM 42.0786 -80.7342 81° East 467 537 37,000  Level Cleveland Center
06:36AM 42.1017 -80.5553 80° East 472 543 37,000  Level Cleveland Center
06:37AM 42.1244 -80.3761 80° East 472 543 37,000  Level Cleveland Center
06:38AM 42.1428 -80.2022 82° East 477 549 37,000  Level Cleveland Center
06:39AM 42.1669 -80.0228 80° East 477 549 37,000  Level Cleveland Center
06:40AM 42.1869 -79.8489 81° East 477 549 37,000  Level Cleveland Center
06:41AM 42.2086 -79.6722 81° East 477 549 37,000  Level Cleveland Center
06:42AM 42.2300 -79.4953 81° East 477 549 37,000  Level Cleveland Center
06:43AM 42.2511 -79.3181 81° East 477 549 37,000  Level Cleveland Center
06:44AM 42.2697 -79.1381 82° East 483 556 37,000  Level Cleveland Center
06:45AM 42.2925 -78.9581 80° East 488 562 37,000  Level Cleveland Center
06:46AM 42.3106 -78.7778 82° East 488 562 37,000  Level Cleveland Center
06:47AM 42.3306 -78.5947 82° East 488 562 37,000  Level Cleveland Center
06:48AM 42.3522 -78.4114 81° East 488 562 37,000  Level Cleveland Center
06:49AM 42.3694 -78.2308 83° East 488 562 37,000  Level Cleveland Center
06:50AM 42.3867 -78.0503 83° East 488 562 37,000  Level Cleveland Center
06:51AM 42.4075 -77.8667 81° East 488 562 37,000  Level Cleveland Center
06:52AM 42.4239 -77.6831 83° East 488 562 37,000  Level Cleveland Center
06:55AM 42.4669 -77.2567 82° East 498 573 37,000  Level Boston Center
06:56AM 42.4850 -77.0750 82° East 493 567 37,000  Level Boston Center
06:57AM 42.5006 -76.8931 83° East 493 567 37,000  Level Boston Center
06:58AM 42.5181 -76.7083 83° East 488 562 37,000  Level Boston Center
06:59AM 42.5353 -76.5292 83° East 488 562 37,000  Level Boston Center
07:00AM 42.5397 -76.3406 88° East 488 562 37,000  Level Boston Center
07:01AM 42.5433 -76.1686 88° East 493 567 37,000  Level Boston Center
07:02AM 42.5456 -75.9744 89° East 504 580 37,000  Level Boston Center
07:03AM 42.5492 -75.7856 88° East 504 580 37,000 -60 Level Boston Center
07:04AM 42.5525 -75.5914 89° East 504 580 36,900 -60 Descending Boston Center
07:05AM 42.5556 -75.3997 89° East 504 580 36,900  Level Boston Center
07:06AM 42.5564 -75.2053 90° East 510 587 37,000  Climbing Boston Center
07:07AM 42.5597 -74.9769 89° East 510 587 37,000  Level Boston Center
07:08AM 42.5617 -74.7883 89° East 510 587 37,000 -60 Level Boston Center
07:09AM 42.5611 -74.5994 90° East 510 587 36,900  Descending Boston Center
07:10AM 42.5647 -74.4078 88° East 510 587 37,000 -300 Climbing Boston Center
07:11AM 42.5636 -74.2189 90° East 498 573 36,400 -780 Descending Boston Center
07:12AM 42.5664 -74.0300 89° East 498 573 35,500 -960 Descending Boston Center
07:13AM 42.5647 -73.8383 91° East 498 573 34,500 -960 Descending Boston Center
07:14AM 42.5628 -73.6550 91° East 493 567 33,600 -960 Descending Boston Center
07:15AM 42.5625 -73.4717 90° East 493 567 32,600 -1,020 Descending Boston Center
07:16AM 42.5642 -73.2772 89° East 498 573 31,600 -1,200 Descending Boston Center
07:17AM 42.5611 -73.0883 91° East 503 579 30,200 -2,040 Descending Boston Center
07:18AM 42.5600 -72.9022 90° East 498 573 27,600 -2,280 Descending Boston Center
07:19AM 42.5542 -72.7247 92° East 487 560 25,300 -2,280 Descending Boston Center
07:20AM 42.5525 -72.5078 91° East 477 549 22,600 -2,280 Descending Boston Center
07:21AM 42.5503 -72.3386 91° East 457 526 20,300 -2,280 Descending Boston Center
07:22AM 42.5458 -72.1331 92° East 421 484 17,700 -2,460 Descending Boston Center
07:24AM 42.5347 -71.9442 95° East 421 484 14,900 -2,220 Descending Boston Center
07:25AM 42.5217 -71.8092 97° East 414 476 12,900 -1,860 Descending Boston Center
07:26AM 42.5081 -71.6486 97° East 392 451 11,200 -1,320 Descending Boston Center
07:26AM 42.5000 -71.5500 96° East 346 398 10,600 -840 Descending KA90
07:27AM 42.4833 -71.4167 100° East 307 353 9,700 -840 Descending KA90
07:28AM 42.4833 -71.3167 90° East 305 351 9,000 -780 Descending KA90
07:29AM 42.4667 -71.2000 101° East 297 342 8,200 -720 Descending KA90
07:30AM 42.4500 -71.1000 103° East 262 302 7,500 -720 Descending KA90
07:31AM 42.4333 -71.0000 103° East 242 278 6,800 -720 Descending KA90
07:32AM 42.4000 -70.9500 132° Southeast 236 272 6,200 -720 Descending KA90
07:33AM 42.3667 -70.8667 118° Southeast 234 269 5,400 -600 Descending KA90
07:34AM 42.3333 -70.8000 124° Southeast 207 238 5,000 -240 Descending KA90
07:35AM 42.2833 -70.7500 143° Southeast 209 241 5,000  Level KA90
07:36AM 42.2500 -70.7000 132° Southeast 209 241 5,000  Level KA90
07:37AM 42.2000 -70.6500 143° Southeast 206 237 5,000  Level KA90
07:38AM 42.1833 -70.7167 251° West 202 232 5,000 -480 Level KA90
07:39AM 42.2000 -70.7667 294° West 185 213 4,000 -960 Descending KA90
07:41AM 42.2333 -70.8333 304° West 179 206 3,000 -960 Descending KA90